createdAt,value
2023-04-06T00:02:59.881Z,93939.00
2023-04-06T00:08:01.479Z,93927.66
2023-04-06T00:13:04.349Z,93929.16
2023-04-06T00:18:05.937Z,93927.78
2023-04-06T00:23:07.585Z,93932.97
2023-04-06T00:28:10.640Z,93928.91
2023-04-06T00:33:12.165Z,93921.88
2023-04-06T00:38:13.832Z,93924.69
2023-04-06T00:43:16.748Z,93915.69
2023-04-06T00:48:18.302Z,93908.94
2023-04-06T00:53:19.807Z,93905.13
2023-04-06T00:58:22.807Z,93901.94
2023-04-06T01:03:24.390Z,93900.56
2023-04-06T01:08:26.078Z,93901.44
2023-04-06T01:13:28.937Z,93891.28
2023-04-06T01:18:30.793Z,93890.63
2023-04-06T01:23:33.645Z,93888.69
2023-04-06T01:28:35.167Z,93885.44
2023-04-06T01:33:36.918Z,93879.28
2023-04-06T01:38:39.770Z,93867.63
2023-04-06T01:43:41.537Z,93869.56
2023-04-06T01:48:43.307Z,93862.97
2023-04-06T01:53:46.192Z,93856.56
2023-04-06T01:58:47.663Z,93861.03
2023-04-06T02:03:49.164Z,93849.84
2023-04-06T02:08:51.961Z,93846.25
2023-04-06T02:13:53.399Z,93847.03
2023-04-06T02:18:54.853Z,93849.94
2023-04-06T02:23:57.704Z,93847.44
2023-04-06T02:28:59.220Z,93854.94
2023-04-06T02:34:00.660Z,93849.78
2023-04-06T02:39:03.637Z,93850.19
2023-04-06T02:44:06.741Z,93843.09
2023-04-06T02:49:08.743Z,93843.91
2023-04-06T02:54:11.793Z,93837.84
2023-04-06T02:59:13.434Z,93835.25
2023-04-06T03:04:14.939Z,93832.81
2023-04-06T03:09:17.848Z,93828.25
2023-04-06T03:14:19.324Z,93832.25
2023-04-06T03:19:20.796Z,93835.69
2023-04-06T03:24:23.812Z,93838.97
2023-04-06T03:29:25.320Z,93842.41
2023-04-06T03:34:26.825Z,93842.94
2023-04-06T03:39:29.619Z,93843.25
2023-04-06T03:44:31.088Z,93847.06
2023-04-06T03:49:32.567Z,93847.88
2023-04-06T03:54:35.373Z,93846.50
2023-04-06T03:59:37.028Z,93853.19
2023-04-06T04:04:39.044Z,93851.56
2023-04-06T04:09:41.965Z,93848.44
2023-04-06T04:14:43.418Z,93846.22
2023-04-06T04:19:44.915Z,93848.84
2023-04-06T04:24:47.745Z,93854.84
2023-04-06T04:29:49.236Z,93854.84
2023-04-06T04:34:50.810Z,93861.38
2023-04-06T04:39:53.700Z,93856.78
2023-04-06T04:44:55.133Z,93860.31
2023-04-06T04:49:56.623Z,93863.41
2023-04-06T04:54:59.498Z,93873.00
2023-04-06T05:00:01.040Z,93875.22
2023-04-06T05:05:02.647Z,93871.13
2023-04-06T05:10:06.526Z,93877.56
2023-04-06T05:15:09.746Z,93879.66
2023-04-06T05:20:11.997Z,93876.63
2023-04-06T05:25:15.457Z,93882.94
2023-04-06T05:30:17.023Z,93882.81
2023-04-06T05:35:18.481Z,93885.53
2023-04-06T05:40:21.404Z,93886.91
2023-04-06T05:45:22.893Z,93899.72
2023-04-06T05:50:24.431Z,93902.28
2023-04-06T05:55:27.322Z,93899.59
2023-04-06T06:00:28.890Z,93903.53
2023-04-06T06:05:30.579Z,93893.69
2023-04-06T06:10:33.492Z,93902.03
2023-04-06T06:15:34.932Z,93908.34
2023-04-06T06:20:36.532Z,93902.72
2023-04-06T06:25:40.166Z,93904.22
2023-04-06T06:30:41.614Z,93910.81
2023-04-06T06:35:43.181Z,93913.31
2023-04-06T06:40:46.993Z,93913.47
2023-04-06T06:45:48.658Z,93917.28
2023-04-06T06:50:50.264Z,93916.03
2023-04-06T06:55:53.178Z,93916.03
2023-04-06T07:00:57.055Z,93922.63
2023-04-06T07:05:58.630Z,93920.25
2023-04-06T07:11:01.525Z,93912.03
2023-04-06T07:16:03.293Z,93913.66
2023-04-06T07:21:05.426Z,93917.81
2023-04-06T07:26:08.261Z,93918.59
2023-04-06T07:31:10.173Z,93928.13
2023-04-06T07:36:11.650Z,93920.47
2023-04-06T07:41:14.565Z,93924.38
2023-04-06T07:46:17.185Z,93934.16
2023-04-06T07:51:18.809Z,93929.06
2023-04-06T07:56:21.922Z,93930.91
2023-04-06T08:01:23.592Z,93931.72
2023-04-06T08:06:25.208Z,93938.59
2023-04-06T08:11:28.006Z,93933.31
2023-04-06T08:16:29.481Z,93936.28
2023-04-06T08:21:30.983Z,93931.78
2023-04-06T08:26:33.774Z,93929.50
2023-04-06T08:31:35.543Z,93927.81
2023-04-06T08:36:37.104Z,93934.94
2023-04-06T08:41:42.467Z,93939.25
2023-04-06T08:46:43.996Z,93937.97
2023-04-06T08:51:45.569Z,93927.94
2023-04-06T08:56:49.243Z,93927.63
2023-04-06T09:01:53.906Z,93923.06
2023-04-06T09:06:55.481Z,93926.53
2023-04-06T09:11:58.322Z,93924.81
2023-04-06T09:16:59.802Z,93923.84
2023-04-06T09:22:04.923Z,93925.72
2023-04-06T09:27:07.720Z,93923.88
2023-04-06T09:32:10.541Z,93918.09
2023-04-06T09:37:16.207Z,93921.00
2023-04-06T09:42:26.385Z,93911.16
2023-04-06T09:47:29.728Z,93906.47
2023-04-06T09:52:33.768Z,93908.84
2023-04-06T09:57:46.361Z,93911.09
2023-04-06T10:02:53.166Z,93909.75
2023-04-06T10:08:00.799Z,93903.47
2023-04-06T10:13:05.577Z,93903.94
2023-04-06T10:18:07.467Z,93899.50
2023-04-06T10:23:12.951Z,93897.16
2023-04-06T10:28:15.759Z,93903.50
2023-04-06T10:33:18.719Z,93892.97
2023-04-06T10:38:20.439Z,93896.91
2023-04-06T10:43:24.273Z,93899.00
2023-04-06T10:48:25.900Z,93889.34
2023-04-06T10:53:28.620Z,93893.06
2023-04-06T10:58:31.581Z,93897.28
2023-04-06T11:03:43.001Z,93888.16
2023-04-06T11:08:44.533Z,93871.81
2023-04-06T11:13:50.970Z,93882.22
2023-04-06T11:18:55.056Z,93860.78
2023-04-06T11:24:05.311Z,93872.50
2023-04-06T11:29:08.479Z,93868.78
2023-04-06T11:34:13.802Z,93876.44
2023-04-06T11:39:20.749Z,93865.47
2023-04-06T11:44:33.222Z,93858.78
2023-04-06T11:49:38.036Z,93846.56
2023-04-06T11:54:39.548Z,93847.97
2023-04-06T11:59:42.493Z,93844.09
2023-04-06T12:04:44.199Z,93831.09
2023-04-06T12:09:45.778Z,93842.66
2023-04-06T12:14:48.606Z,93835.50
2023-04-06T12:19:50.189Z,93830.69
2023-04-06T12:24:51.620Z,93839.63
2023-04-06T12:29:54.440Z,93822.44
2023-04-06T12:34:55.965Z,93827.88
2023-04-06T12:39:57.419Z,93819.75
2023-04-06T12:45:00.265Z,93826.34
2023-04-06T12:50:02.152Z,93818.91
2023-04-06T12:55:04.724Z,93820.47
2023-04-06T13:00:09.527Z,93812.88
2023-04-06T13:05:11.504Z,93813.28
2023-04-06T13:10:13.027Z,93804.78
2023-04-06T13:15:16.183Z,93802.38
2023-04-06T13:20:18.181Z,93803.28
2023-04-06T13:25:19.700Z,93794.22
2023-04-06T13:30:22.977Z,93787.94
2023-04-06T13:35:24.455Z,93789.03
2023-04-06T13:40:25.974Z,93775.81
2023-04-06T13:45:28.925Z,93759.44
2023-04-06T13:50:30.541Z,93766.84
2023-04-06T13:55:32.119Z,93763.22
2023-04-06T14:00:35.209Z,93767.19
2023-04-06T14:05:36.789Z,93765.63
2023-04-06T14:10:38.868Z,93762.25
2023-04-06T14:15:41.666Z,93753.34
2023-04-06T14:20:43.222Z,93763.13
2023-04-06T14:25:44.804Z,93763.88
2023-04-06T14:30:49.109Z,93757.69
2023-04-06T14:35:50.555Z,93754.31
2023-04-06T14:40:52.020Z,93751.03
2023-04-06T14:45:54.931Z,93752.66
2023-04-06T14:50:57.177Z,93748.06
2023-04-06T14:55:58.667Z,93754.75
2023-04-06T15:01:02.858Z,93756.00
2023-04-06T15:06:04.677Z,93756.06
2023-04-06T15:11:06.208Z,93755.72
2023-04-06T15:16:09.300Z,93757.34
2023-04-06T15:21:10.778Z,93750.69
2023-04-06T15:26:12.847Z,93750.56
2023-04-06T15:31:24.446Z,93759.66
2023-04-06T15:36:37.983Z,93754.16
2023-04-06T15:41:39.457Z,93750.78
2023-04-06T15:46:42.256Z,93757.00
2023-04-06T15:51:43.739Z,93752.63
2023-04-06T15:56:45.568Z,93752.81
2023-04-06T16:01:48.822Z,93754.16
2023-04-06T16:06:50.464Z,93752.16
2023-04-06T16:11:51.977Z,93750.13
2023-04-06T16:16:54.956Z,93748.88
2023-04-06T16:21:56.415Z,93750.13
2023-04-06T16:26:58.003Z,93750.81
2023-04-06T16:32:00.916Z,93749.81
2023-04-06T16:37:02.656Z,93754.88
2023-04-06T16:42:04.725Z,93756.50
2023-04-06T16:47:07.638Z,93748.53
2023-04-06T16:52:09.388Z,93745.44
2023-04-06T16:57:11.371Z,93750.94
2023-04-06T17:02:15.045Z,93756.47
2023-04-06T17:07:16.581Z,93763.59
2023-04-06T17:12:18.128Z,93766.34
2023-04-06T17:17:21.100Z,93771.53
2023-04-06T17:22:22.600Z,93767.53
2023-04-06T17:27:24.084Z,93770.81
2023-04-06T17:32:26.921Z,93776.91
2023-04-06T17:37:28.684Z,93772.97
2023-04-06T17:42:30.206Z,93777.25
2023-04-06T17:47:33.150Z,93774.88
2023-04-06T17:52:34.731Z,93775.06
2023-04-06T17:57:37.181Z,93782.59
2023-04-06T18:02:43.033Z,93783.91
2023-04-06T18:07:44.854Z,93792.06
2023-04-06T18:12:46.806Z,93797.34
2023-04-06T18:17:50.446Z,93793.25
2023-04-06T18:22:52.032Z,93788.94
2023-04-06T18:27:53.510Z,93796.47
2023-04-06T18:32:56.504Z,93805.38
2023-04-06T18:37:58.114Z,93798.28
2023-04-06T18:42:59.989Z,93798.16
2023-04-06T18:48:02.914Z,93803.19
2023-04-06T18:53:04.522Z,93802.06
2023-04-06T18:58:06.029Z,93813.47
2023-04-06T19:03:09.178Z,93823.97
2023-04-06T19:08:12.276Z,93835.41
2023-04-06T19:13:13.827Z,93833.41
2023-04-06T19:18:16.763Z,93832.72
2023-04-06T19:23:18.371Z,93840.56
2023-04-06T19:28:19.867Z,93843.94
2023-04-06T19:33:22.678Z,93837.13
2023-04-06T19:38:24.299Z,93830.75
2023-04-06T19:43:26.493Z,93829.94
2023-04-06T19:48:29.400Z,93839.94
2023-04-06T19:53:31.406Z,93843.38
2023-04-06T19:58:33.412Z,93848.97
2023-04-06T20:03:36.494Z,93853.69
2023-04-06T20:08:38.102Z,93854.34
2023-04-06T20:13:39.680Z,93860.22
2023-04-06T20:18:42.586Z,93857.94
2023-04-06T20:23:44.157Z,93856.97
2023-04-06T20:28:45.793Z,93860.88
2023-04-06T20:33:48.594Z,93857.56
2023-04-06T20:38:50.194Z,93856.38
2023-04-06T20:43:51.743Z,93862.25
2023-04-06T20:48:54.706Z,93857.72
2023-04-06T20:53:56.388Z,93859.88
2023-04-06T20:58:58.026Z,93860.19
2023-04-06T21:04:03.370Z,93857.97
2023-04-06T21:09:05.628Z,93852.88
2023-04-06T21:14:07.253Z,93857.16
2023-04-06T21:19:10.138Z,93850.16
2023-04-06T21:24:11.731Z,93848.31
2023-04-06T21:29:13.220Z,93848.81
2023-04-06T21:34:16.466Z,93850.50
2023-04-06T21:39:18.390Z,93847.50
2023-04-06T21:44:20.305Z,93842.28
2023-04-06T21:49:23.519Z,93843.66
2023-04-06T21:54:25.103Z,93844.84
2023-04-06T21:59:26.630Z,93831.22
2023-04-06T22:04:30.717Z,93846.34
2023-04-06T22:09:32.418Z,93845.75
2023-04-06T22:14:33.922Z,93844.94
2023-04-06T22:19:36.765Z,93846.34
2023-04-06T22:24:38.369Z,93852.34
2023-04-06T22:29:39.880Z,93844.63
2023-04-06T22:34:42.805Z,93843.06
2023-04-06T22:39:44.329Z,93840.16
2023-04-06T22:44:45.837Z,93833.03
2023-04-06T22:49:48.760Z,93841.59
2023-04-06T22:54:50.280Z,93833.41
2023-04-06T22:59:52.264Z,93833.47
2023-04-06T23:04:55.188Z,93827.88
2023-04-06T23:09:56.708Z,93831.31
2023-04-06T23:20:01.207Z,93831.53
2023-04-06T23:25:02.806Z,93831.78
2023-04-06T23:30:05.241Z,93820.03
2023-04-06T23:35:09.024Z,93827.34
2023-04-06T23:40:11.059Z,93826.91
2023-04-06T23:45:12.598Z,93828.63
2023-04-06T23:50:15.454Z,93816.41
2023-04-06T23:55:17.272Z,93809.75
